createdAt,value
2019-05-03T00:02:28.291Z,11.87
2019-05-03T00:05:26.961Z,12.80
2019-05-03T00:08:09.427Z,10.80
2019-05-03T00:10:38.758Z,12.00
2019-05-03T00:13:08.758Z,11.57
2019-05-03T00:16:00.158Z,12.00
2019-05-03T00:18:29.194Z,12.30
2019-05-03T00:20:58.511Z,12.33
2019-05-03T00:23:27.620Z,11.63
2019-05-03T00:25:57.003Z,12.17
2019-05-03T00:28:26.789Z,12.00
2019-05-03T00:30:55.694Z,11.43
2019-05-03T00:33:25.706Z,11.20
2019-05-03T00:36:19.906Z,11.30
2019-05-03T00:38:50.102Z,10.70
2019-05-03T00:41:19.156Z,11.77
2019-05-03T00:43:48.274Z,10.80
2019-05-03T00:46:18.079Z,10.83
2019-05-03T00:48:47.340Z,11.77
2019-05-03T00:51:16.231Z,11.40
2019-05-03T00:53:45.750Z,10.57
2019-05-03T00:56:15.238Z,11.70
2019-05-03T00:58:52.975Z,11.37
2019-05-03T01:01:22.585Z,11.00
2019-05-03T01:03:52.612Z,10.40
2019-05-03T01:06:22.726Z,11.77
2019-05-03T01:08:52.374Z,11.30
2019-05-03T01:11:22.399Z,10.97
2019-05-03T01:13:52.333Z,12.33
2019-05-03T01:16:22.856Z,10.63
2019-05-03T01:18:52.635Z,9.90
2019-05-03T01:21:22.565Z,10.10
2019-05-03T01:23:52.722Z,10.93
2019-05-03T01:26:22.699Z,11.10
2019-05-03T01:28:52.291Z,11.03
2019-05-03T01:31:22.798Z,11.40
2019-05-03T01:33:52.470Z,11.80
2019-05-03T01:36:22.771Z,11.27
2019-05-03T01:38:53.091Z,12.07
2019-05-03T01:41:22.845Z,10.70
2019-05-03T01:43:52.659Z,11.03
2019-05-03T01:46:23.083Z,10.47
2019-05-03T01:49:23.188Z,10.77
2019-05-03T01:52:12.805Z,10.73
2019-05-03T01:54:42.698Z,11.20
2019-05-03T01:57:12.137Z,11.73
2019-05-03T01:59:42.579Z,11.40
2019-05-03T02:02:25.639Z,11.47
2019-05-03T02:05:13.510Z,11.17
2019-05-03T02:07:42.996Z,11.03
2019-05-03T02:10:12.394Z,10.63
2019-05-03T02:12:41.795Z,11.47
2019-05-03T02:15:12.006Z,11.87
2019-05-03T02:17:42.677Z,10.40
2019-05-03T02:20:12.602Z,10.87
2019-05-03T02:22:42.734Z,11.70
2019-05-03T02:25:12.613Z,10.87
2019-05-03T02:27:42.276Z,10.27
2019-05-03T02:30:14.097Z,10.73
2019-05-03T02:32:44.024Z,11.40
2019-05-03T02:35:14.193Z,10.33
2019-05-03T02:37:45.140Z,11.40
2019-05-03T02:40:14.381Z,11.90
2019-05-03T02:42:46.337Z,11.47
2019-05-03T02:45:22.666Z,10.97
2019-05-03T02:48:06.138Z,12.33
2019-05-03T02:50:36.091Z,12.37
2019-05-03T02:53:05.834Z,12.30
2019-05-03T02:55:36.398Z,11.40
2019-05-03T02:58:05.948Z,11.33
2019-05-03T03:00:56.099Z,12.17
2019-05-03T03:03:26.024Z,12.00
2019-05-03T03:05:57.128Z,10.90
2019-05-03T03:08:28.062Z,11.60
2019-05-03T03:11:00.950Z,12.10
2019-05-03T03:13:31.325Z,11.67
2019-05-03T03:16:03.666Z,12.63
2019-05-03T03:18:36.454Z,13.67
2019-05-03T03:21:08.594Z,10.90
2019-05-03T03:24:07.210Z,12.23
2019-05-03T03:26:42.770Z,11.77
2019-05-03T03:29:11.016Z,12.03
2019-05-03T03:32:38.451Z,11.30
2019-05-03T03:35:20.742Z,11.77
2019-05-03T03:37:46.874Z,11.97
2019-05-03T03:40:18.077Z,12.90
2019-05-03T03:42:49.578Z,11.73
2019-05-03T03:45:19.091Z,12.37
2019-05-03T03:47:50.253Z,14.10
2019-05-03T03:50:19.475Z,16.80
2019-05-03T03:52:50.140Z,19.73
2019-05-03T03:55:19.016Z,19.80
2019-05-03T03:57:48.784Z,16.93
2019-05-03T04:00:18.702Z,12.80
2019-05-03T04:02:47.812Z,13.07
2019-05-03T04:05:16.764Z,15.07
2019-05-03T04:07:46.631Z,13.37
2019-05-03T04:10:16.364Z,13.17
2019-05-03T04:12:47.274Z,14.27
2019-05-03T04:15:47.474Z,13.10
2019-05-03T04:18:32.204Z,12.90
2019-05-03T04:21:01.831Z,13.47
2019-05-03T04:23:35.680Z,13.07
2019-05-03T04:26:03.401Z,13.90
2019-05-03T04:28:36.147Z,13.20
2019-05-03T04:31:06.205Z,13.30
2019-05-03T04:33:35.956Z,13.30
2019-05-03T04:36:05.698Z,13.60
2019-05-03T04:38:35.696Z,11.87
2019-05-03T04:41:05.898Z,12.20
2019-05-03T04:43:35.763Z,13.73
2019-05-03T04:46:09.508Z,13.67
2019-05-03T04:48:38.831Z,12.77
2019-05-03T04:51:08.599Z,14.57
2019-05-03T04:53:40.690Z,11.20
2019-05-03T04:56:09.755Z,12.57
2019-05-03T04:58:39.411Z,11.77
2019-05-03T05:01:08.461Z,11.43
2019-05-03T05:03:37.863Z,11.00
2019-05-03T05:06:07.066Z,10.90
2019-05-03T05:08:36.438Z,10.73
2019-05-03T05:11:09.836Z,9.87
2019-05-03T05:13:37.349Z,10.43
2019-05-03T05:16:06.711Z,9.87
2019-05-03T05:18:41.204Z,10.70
2019-05-03T05:21:20.200Z,9.97
2019-05-03T05:24:05.515Z,10.30
2019-05-03T05:26:41.274Z,9.80
2019-05-03T05:29:12.087Z,11.27
2019-05-03T05:31:40.966Z,9.80
2019-05-03T05:34:10.199Z,9.43
2019-05-03T05:36:39.750Z,10.40
2019-05-03T05:39:09.154Z,8.83
2019-05-03T05:41:38.339Z,8.87
2019-05-03T05:44:07.549Z,8.27
2019-05-03T05:46:45.454Z,8.73
2019-05-03T05:49:16.542Z,7.97
2019-05-03T05:51:45.702Z,8.80
2019-05-03T05:54:15.078Z,9.07
2019-05-03T05:57:05.055Z,8.93
2019-05-03T05:59:48.790Z,9.23
2019-05-03T06:02:18.810Z,8.30
2019-05-03T06:04:47.857Z,7.53
2019-05-03T06:07:28.527Z,8.17
2019-05-03T06:10:24.722Z,8.80
2019-05-03T06:12:59.498Z,42.07
2019-05-03T06:15:44.656Z,31.37
2019-05-03T06:18:18.995Z,18.77
2019-05-03T06:21:14.841Z,10.63
2019-05-03T06:23:50.318Z,8.30
2019-05-03T06:26:34.827Z,8.30
2019-05-03T06:29:04.746Z,8.47
2019-05-03T06:31:52.027Z,7.77
2019-05-03T06:34:21.874Z,8.53
2019-05-03T06:36:52.562Z,8.10
2019-05-03T06:39:21.375Z,7.90
2019-05-03T06:41:50.681Z,8.97
2019-05-03T06:44:24.717Z,9.40
2019-05-03T06:46:52.048Z,10.13
2019-05-03T06:49:21.439Z,10.03
2019-05-03T06:51:50.759Z,9.67
2019-05-03T06:54:25.197Z,9.20
2019-05-03T06:56:51.444Z,9.03
2019-05-03T06:59:26.412Z,10.33
2019-05-03T07:02:14.970Z,9.37
2019-05-03T07:04:46.439Z,11.07
2019-05-03T07:07:35.321Z,9.20
2019-05-03T07:10:09.800Z,9.33
2019-05-03T07:12:56.783Z,9.20
2019-05-03T07:15:25.617Z,9.50
2019-05-03T07:17:55.625Z,10.63
2019-05-03T07:20:25.600Z,9.87
2019-05-03T07:22:55.800Z,10.83
2019-05-03T07:25:25.723Z,9.97
2019-05-03T07:27:55.671Z,10.10
2019-05-03T07:30:25.193Z,10.13
2019-05-03T07:32:59.855Z,10.03
2019-05-03T07:35:28.658Z,9.27
2019-05-03T07:37:58.198Z,8.90
2019-05-03T07:40:27.120Z,9.43
2019-05-03T07:42:56.437Z,7.57
2019-05-03T07:45:25.838Z,6.10
2019-05-03T07:47:55.946Z,6.60
2019-05-03T07:50:25.969Z,6.57
2019-05-03T07:52:55.645Z,7.23
2019-05-03T07:55:45.738Z,7.83
2019-05-03T07:58:18.559Z,6.70
2019-05-03T08:01:02.399Z,7.97
2019-05-03T08:03:19.586Z,7.70
2019-05-03T08:05:48.411Z,8.67
2019-05-03T08:08:17.621Z,8.10
2019-05-03T08:10:46.776Z,7.80
2019-05-03T08:13:16.155Z,7.83
2019-05-03T08:15:45.672Z,8.70
2019-05-03T08:18:15.454Z,8.23
2019-05-03T08:20:45.310Z,8.40
2019-05-03T08:23:26.312Z,7.63
2019-05-03T08:25:45.492Z,6.37
2019-05-03T08:28:14.744Z,6.17
2019-05-03T08:31:15.468Z,6.00
2019-05-03T08:33:52.244Z,6.67
2019-05-03T08:36:21.031Z,8.20
2019-05-03T08:38:50.722Z,5.80
2019-05-03T08:41:21.833Z,7.23
2019-05-03T08:43:50.954Z,6.50
2019-05-03T08:46:20.170Z,6.53
2019-05-03T08:48:49.393Z,6.87
2019-05-03T08:51:18.715Z,7.00
2019-05-03T08:53:48.210Z,7.70
2019-05-03T08:56:17.619Z,6.70
2019-05-03T08:58:46.470Z,7.13
2019-05-03T09:01:15.684Z,6.73
2019-05-03T09:03:45.772Z,6.97
2019-05-03T09:06:15.598Z,6.97
2019-05-03T09:08:45.792Z,7.47
2019-05-03T09:11:16.062Z,7.33
2019-05-03T09:13:52.985Z,6.20
2019-05-03T09:16:22.315Z,7.03
2019-05-03T09:18:51.847Z,7.33
2019-05-03T09:21:20.990Z,6.03
2019-05-03T09:23:50.033Z,6.83
2019-05-03T09:26:18.959Z,6.40
2019-05-03T09:28:48.066Z,6.60
2019-05-03T09:31:17.386Z,6.53
2019-05-03T09:33:46.192Z,6.33
2019-05-03T09:36:15.670Z,6.23
2019-05-03T09:38:45.783Z,5.80
2019-05-03T09:41:15.203Z,5.73
2019-05-03T09:43:45.109Z,5.80
2019-05-03T09:46:14.710Z,6.03
2019-05-03T09:48:45.497Z,6.23
2019-05-03T09:51:14.951Z,6.33
2019-05-03T09:53:49.430Z,5.63
2019-05-03T09:56:21.174Z,6.27
2019-05-03T09:58:49.981Z,5.53
2019-05-03T10:01:19.506Z,6.60
2019-05-03T10:03:48.642Z,6.27
2019-05-03T10:06:18.099Z,6.03
2019-05-03T10:08:47.249Z,5.10
2019-05-03T10:11:16.176Z,5.47
2019-05-03T10:13:48.077Z,5.60
2019-05-03T10:16:16.314Z,5.10
2019-05-03T10:18:46.138Z,4.57
2019-05-03T10:21:15.711Z,5.47
2019-05-03T10:23:45.421Z,5.07
2019-05-03T10:26:14.895Z,4.97
2019-05-03T10:28:44.371Z,3.80
2019-05-03T10:31:13.325Z,4.43
2019-05-03T10:33:49.973Z,4.23
2019-05-03T10:36:20.115Z,4.23
2019-05-03T10:38:49.354Z,4.07
2019-05-03T10:41:18.843Z,4.20
2019-05-03T10:43:48.118Z,4.50
2019-05-03T10:46:17.242Z,4.77
2019-05-03T10:48:46.346Z,4.83
2019-05-03T10:51:16.025Z,5.10
2019-05-03T10:53:48.512Z,5.50
2019-05-03T10:56:35.875Z,5.27
2019-05-03T10:59:06.698Z,5.37
2019-05-03T11:01:49.695Z,5.53
2019-05-03T11:04:19.610Z,5.43
2019-05-03T11:06:48.784Z,5.63
2019-05-03T11:09:18.027Z,5.30
2019-05-03T11:11:47.559Z,5.30
2019-05-03T11:14:16.783Z,4.90
2019-05-03T11:16:46.161Z,5.37
2019-05-03T11:19:15.449Z,4.63
2019-05-03T11:21:45.569Z,4.67
2019-05-03T11:24:15.090Z,5.47
2019-05-03T11:26:46.278Z,4.87
2019-05-03T11:29:15.995Z,5.07
2019-05-03T11:31:50.083Z,5.90
2019-05-03T11:34:22.567Z,5.27
2019-05-03T11:37:09.927Z,5.03
2019-05-03T11:39:39.192Z,5.13
2019-05-03T11:42:08.086Z,4.80
2019-05-03T11:44:39.691Z,4.90
2019-05-03T11:47:09.247Z,4.87
2019-05-03T11:49:38.507Z,4.50
2019-05-03T11:52:07.824Z,4.60
2019-05-03T11:54:37.378Z,9.37
2019-05-03T11:57:11.841Z,6.33
2019-05-03T11:59:40.635Z,5.40
2019-05-03T12:02:17.242Z,4.33
2019-05-03T12:04:46.676Z,4.50
2019-05-03T12:07:38.978Z,4.10
2019-05-03T12:10:02.792Z,7.63
2019-05-03T12:12:35.348Z,17.37
2019-05-03T12:15:04.898Z,6.47
2019-05-03T12:17:50.452Z,6.60
2019-05-03T12:20:09.996Z,7.63
2019-05-03T12:22:39.460Z,14.53
2019-05-03T12:25:10.314Z,7.10
2019-05-03T12:27:39.889Z,4.30
2019-05-03T12:30:09.146Z,5.27
2019-05-03T12:32:38.214Z,4.03
2019-05-03T12:35:07.535Z,4.70
2019-05-03T12:37:36.334Z,4.47
2019-05-03T12:40:05.620Z,3.93
2019-05-03T12:42:35.426Z,4.27
2019-05-03T12:45:04.926Z,4.47
2019-05-03T12:47:34.646Z,4.50
2019-05-03T12:50:05.317Z,4.57
2019-05-03T12:52:35.437Z,4.47
2019-05-03T12:55:06.610Z,4.80
2019-05-03T12:57:35.696Z,4.17
2019-05-03T13:00:25.347Z,4.10
2019-05-03T13:03:04.448Z,4.77
2019-05-03T13:05:35.517Z,4.07
2019-05-03T13:08:30.453Z,4.50
2019-05-03T13:10:59.411Z,21.80
2019-05-03T13:13:28.725Z,7.53
2019-05-03T13:16:00.272Z,4.20
2019-05-03T13:18:29.635Z,3.63
2019-05-03T13:20:58.693Z,4.20
2019-05-03T13:23:28.386Z,4.60
2019-05-03T13:25:57.672Z,4.03
2019-05-03T13:28:26.591Z,4.40
2019-05-03T13:30:55.978Z,4.87
2019-05-03T13:33:25.167Z,4.30
2019-05-03T13:35:55.164Z,4.07
2019-05-03T13:38:25.053Z,3.97
2019-05-03T13:40:54.735Z,3.97
2019-05-03T13:43:23.882Z,4.10
2019-05-03T13:45:52.860Z,5.43
2019-05-03T13:48:23.590Z,4.57
2019-05-03T13:50:52.331Z,4.30
2019-05-03T13:53:21.418Z,4.50
2019-05-03T13:55:50.607Z,4.17
2019-05-03T13:58:19.534Z,4.20
2019-05-03T14:00:51.075Z,3.63
2019-05-03T14:03:19.342Z,3.80
2019-05-03T14:05:48.547Z,4.37
2019-05-03T14:08:18.574Z,3.50
2019-05-03T14:10:47.982Z,3.77
2019-05-03T14:13:17.344Z,3.50
2019-05-03T14:15:46.298Z,3.83
2019-05-03T14:18:15.712Z,4.17
2019-05-03T14:21:07.826Z,4.40
2019-05-03T14:23:56.035Z,3.93
2019-05-03T14:26:24.918Z,3.50
2019-05-03T14:28:54.807Z,3.33
2019-05-03T14:31:25.235Z,3.20
2019-05-03T14:33:55.905Z,4.00
2019-05-03T14:36:25.618Z,3.33
2019-05-03T14:38:55.088Z,3.43
2019-05-03T14:41:25.377Z,2.97
2019-05-03T14:43:55.699Z,3.57
2019-05-03T14:46:32.919Z,2.97
2019-05-03T14:48:55.613Z,3.40
2019-05-03T14:51:25.425Z,7.27
2019-05-03T14:53:57.062Z,4.63
2019-05-03T14:56:53.927Z,3.20
2019-05-03T14:59:42.447Z,3.80
2019-05-03T15:02:21.399Z,3.07
2019-05-03T15:04:50.671Z,2.73
2019-05-03T15:07:19.795Z,2.73
2019-05-03T15:09:48.842Z,2.87
2019-05-03T15:12:17.965Z,3.20
2019-05-03T15:14:46.750Z,2.87
2019-05-03T15:17:16.198Z,3.27
2019-05-03T15:19:45.388Z,2.80
2019-05-03T15:22:14.702Z,2.97
2019-05-03T15:24:45.097Z,3.23
2019-05-03T15:27:14.614Z,2.70
2019-05-03T15:29:44.808Z,3.50
2019-05-03T15:32:15.508Z,3.20
2019-05-03T15:34:44.773Z,3.00
2019-05-03T15:37:14.878Z,2.90
2019-05-03T15:39:45.156Z,2.63
2019-05-03T15:42:14.685Z,2.80
2019-05-03T15:45:21.150Z,2.80
2019-05-03T15:48:11.448Z,2.93
2019-05-03T15:50:40.900Z,3.00
2019-05-03T15:53:10.179Z,2.67
2019-05-03T15:55:39.273Z,2.50
2019-05-03T15:58:08.393Z,3.30
2019-05-03T16:00:37.879Z,3.70
2019-05-03T16:03:08.973Z,2.97
2019-05-03T16:05:38.697Z,3.10
2019-05-03T16:08:08.318Z,3.47
2019-05-03T16:10:37.121Z,3.60
2019-05-03T16:13:06.356Z,2.53
2019-05-03T16:15:35.291Z,2.80
2019-05-03T16:18:05.220Z,2.70
2019-05-03T16:20:39.257Z,2.77
2019-05-03T16:23:05.502Z,2.60
2019-05-03T16:25:35.624Z,2.87
2019-05-03T16:28:12.992Z,2.23
2019-05-03T16:30:45.536Z,2.90
2019-05-03T16:33:26.100Z,3.17
2019-05-03T16:35:45.624Z,3.00
2019-05-03T16:38:15.706Z,3.00
2019-05-03T16:40:45.281Z,3.23
2019-05-03T16:43:16.240Z,3.20
2019-05-03T16:45:45.083Z,3.03
2019-05-03T16:48:15.407Z,3.13
2019-05-03T16:50:45.735Z,2.70
2019-05-03T16:53:15.069Z,2.47
2019-05-03T16:55:44.414Z,2.77
2019-05-03T16:58:14.955Z,3.17
2019-05-03T17:00:45.046Z,2.63
2019-05-03T17:03:15.048Z,2.80
2019-05-03T17:06:04.710Z,2.97
2019-05-03T17:08:45.318Z,2.50
2019-05-03T17:11:15.871Z,2.70
2019-05-03T17:13:47.955Z,3.30
2019-05-03T17:16:17.170Z,5.77
2019-05-03T17:18:46.588Z,3.73
2019-05-03T17:21:16.472Z,3.37
2019-05-03T17:23:45.967Z,3.20
2019-05-03T17:26:17.483Z,3.60
2019-05-03T17:28:46.664Z,3.07
2019-05-03T17:31:16.153Z,3.00
2019-05-03T17:33:53.526Z,4.00
2019-05-03T17:36:15.894Z,4.23
2019-05-03T17:38:45.926Z,4.00
2019-05-03T17:41:34.629Z,6.67
2019-05-03T17:44:25.704Z,6.47
2019-05-03T17:46:55.612Z,4.50
2019-05-03T17:49:25.003Z,3.10
2019-05-03T17:52:22.028Z,3.80
2019-05-03T17:55:09.917Z,5.13
2019-05-03T17:57:56.555Z,7.47
2019-05-03T18:00:37.992Z,3.13
2019-05-03T18:03:07.714Z,3.10
2019-05-03T18:05:45.446Z,3.27
2019-05-03T18:08:25.018Z,3.17
2019-05-03T18:11:06.826Z,2.97
2019-05-03T18:13:36.216Z,2.77
2019-05-03T18:16:05.434Z,3.10
2019-05-03T18:18:35.267Z,3.57
2019-05-03T18:21:04.917Z,3.80
2019-05-03T18:23:35.163Z,3.50
2019-05-03T18:26:05.312Z,3.67
2019-05-03T18:28:35.550Z,3.30
2019-05-03T18:31:05.765Z,3.53
2019-05-03T18:33:35.638Z,3.50
2019-05-03T18:36:05.615Z,3.67
2019-05-03T18:38:40.949Z,3.23
2019-05-03T18:41:11.440Z,2.80
2019-05-03T18:44:14.978Z,5.07
2019-05-03T18:46:50.182Z,5.03
2019-05-03T18:49:19.330Z,5.30
2019-05-03T18:51:48.494Z,3.73
2019-05-03T18:54:19.162Z,4.07
2019-05-03T18:56:48.710Z,3.20
2019-05-03T18:59:18.323Z,3.40
2019-05-03T19:01:47.391Z,3.03
2019-05-03T19:04:34.687Z,4.00
2019-05-03T19:07:04.330Z,3.53
2019-05-03T19:09:58.823Z,3.17
2019-05-03T19:12:35.818Z,19.00
2019-05-03T19:15:05.444Z,4.13
2019-05-03T19:18:04.362Z,3.10
2019-05-03T19:20:35.261Z,3.60
2019-05-03T19:23:05.380Z,4.00
2019-05-03T19:25:45.812Z,4.47
2019-05-03T19:28:08.168Z,3.57
2019-05-03T19:30:39.220Z,2.60
2019-05-03T19:33:08.077Z,3.13
2019-05-03T19:35:37.486Z,2.77
2019-05-03T19:38:06.904Z,2.70
2019-05-03T19:40:36.170Z,3.37
2019-05-03T19:43:05.451Z,3.60
2019-05-03T19:45:35.348Z,3.70
2019-05-03T19:48:04.794Z,3.40
2019-05-03T19:50:35.315Z,3.80
2019-05-03T19:53:20.027Z,3.43
2019-05-03T19:55:50.626Z,3.20
2019-05-03T19:58:20.281Z,6.20
2019-05-03T20:01:11.283Z,8.87
2019-05-03T20:03:49.886Z,6.27
2019-05-03T20:06:41.290Z,3.70
2019-05-03T20:09:15.162Z,3.70
2019-05-03T20:11:46.063Z,3.40
2019-05-03T20:14:15.702Z,2.90
2019-05-03T20:16:45.006Z,4.27
2019-05-03T20:19:18.909Z,4.83
2019-05-03T20:21:45.599Z,4.70
2019-05-03T20:24:15.393Z,4.33
2019-05-03T20:26:45.067Z,6.53
2019-05-03T20:29:14.822Z,5.90
2019-05-03T20:31:44.684Z,4.80
2019-05-03T20:34:15.695Z,11.80
2019-05-03T20:36:45.302Z,6.80
2019-05-03T20:39:14.874Z,9.07
2019-05-03T20:41:45.317Z,20.67
2019-05-03T20:44:24.724Z,10.43
2019-05-03T20:47:22.203Z,8.40
2019-05-03T20:50:08.635Z,7.20
2019-05-03T20:52:38.266Z,7.40
2019-05-03T20:55:07.778Z,6.03
2019-05-03T20:57:37.108Z,4.37
2019-05-03T21:00:07.322Z,3.70
2019-05-03T21:02:36.592Z,3.80
2019-05-03T21:05:06.614Z,4.10
2019-05-03T21:07:35.759Z,3.10
2019-05-03T21:10:06.074Z,3.70
2019-05-03T21:12:35.266Z,3.37
2019-05-03T21:15:06.262Z,3.30
2019-05-03T21:17:42.914Z,2.93
2019-05-03T21:20:30.960Z,3.93
2019-05-03T21:22:59.789Z,3.10
2019-05-03T21:26:02.626Z,2.90
2019-05-03T21:28:11.012Z,2.90
2019-05-03T21:30:39.992Z,2.93
2019-05-03T21:33:09.418Z,3.17
2019-05-03T21:35:41.889Z,3.67
2019-05-03T21:38:09.465Z,5.30
2019-05-03T21:40:38.271Z,7.40
2019-05-03T21:43:07.770Z,6.53
2019-05-03T21:45:45.418Z,5.30
2019-05-03T21:48:18.742Z,4.33
2019-05-03T21:50:47.546Z,4.87
2019-05-03T21:53:16.603Z,4.00
2019-05-03T21:55:45.820Z,3.70
2019-05-03T21:58:16.522Z,4.37
2019-05-03T22:00:50.130Z,4.23
2019-05-03T22:03:19.017Z,3.80
2019-05-03T22:05:55.061Z,3.33
2019-05-03T22:08:19.403Z,3.60
2019-05-03T22:10:48.285Z,3.53
2019-05-03T22:13:17.905Z,4.10
2019-05-03T22:15:54.865Z,4.00
2019-05-03T22:18:25.830Z,3.80
2019-05-03T22:21:07.162Z,4.23
2019-05-03T22:23:58.255Z,4.53
2019-05-03T22:26:45.545Z,4.20
2019-05-03T22:29:17.159Z,3.93
2019-05-03T22:31:45.397Z,3.93
2019-05-03T22:34:15.241Z,3.97
2019-05-03T22:36:44.573Z,3.97
2019-05-03T22:39:15.784Z,3.73
2019-05-03T22:41:44.943Z,4.40
2019-05-03T22:44:16.810Z,3.63
2019-05-03T22:46:45.287Z,3.90
2019-05-03T22:49:15.597Z,3.70
2019-05-03T22:51:45.194Z,4.43
2019-05-03T22:54:15.363Z,3.70
2019-05-03T22:56:44.939Z,3.03
2019-05-03T22:59:14.885Z,4.00
2019-05-03T23:01:45.840Z,3.33
2019-05-03T23:04:15.043Z,3.00
2019-05-03T23:06:46.992Z,3.00
2019-05-03T23:09:15.901Z,3.13
2019-05-03T23:11:45.425Z,3.67
2019-05-03T23:14:15.044Z,3.47
2019-05-03T23:16:44.832Z,4.70
2019-05-03T23:19:15.090Z,4.13
2019-05-03T23:22:01.736Z,4.13
2019-05-03T23:24:31.039Z,4.20
2019-05-03T23:27:00.159Z,4.17
2019-05-03T23:29:28.971Z,4.30
2019-05-03T23:31:58.002Z,4.50
2019-05-03T23:34:26.798Z,4.70
2019-05-03T23:36:56.280Z,4.63
2019-05-03T23:39:25.435Z,4.37
2019-05-03T23:41:55.721Z,5.47
2019-05-03T23:44:25.791Z,4.23
2019-05-03T23:47:05.180Z,3.60
2019-05-03T23:49:35.320Z,3.80
2019-05-03T23:52:25.679Z,3.83
2019-05-03T23:54:55.877Z,3.80
2019-05-03T23:57:25.213Z,4.23
2019-05-03T23:59:56.852Z,4.20
